Terminal Aerodrome Forecast
Issued by NWS Northern Indiana

Home | Current Version | Previous Version | Text Only | Print | Product List | Glossary On
Versions: 1 2 3 4 5 6 7 8 9 10 11 12 13 14 15 16
000
FTUS43 KIWX 011120
TAFFWA
TAF
KFWA 011120Z 0112/0212 29006KT P6SM SCT080
     FM011600 28011G17KT P6SM SCT060
     FM020400 23005KT P6SM VCTS BKN060CB
     FM020800 20004KT P6SM SCT120=

USA.gov is the U.S. government's official web portal to all federal, state and local government web resources and services.